Latest Weather Observations for Renmark Airport

IDS60801

Issued at 7:05 pm CST Wednesday 23 July 2014 (issued every 30 minutes, with the page automatically refreshed every 10 minutes)

About weather observations | Map of weather stations | Latest weather observations for SA | Other Formats
Station Details ID: 024048 Name: RENMARK AERO Lat: -34.20 Lon: 140.68 Height: 31.5 m
Data from the previous 72 hours. | See also: Recent months at Renmark Airport
Date/Time
CST
Temp
°C
App
Temp
°C
Dew
Point
Rel
Hum
%
Delta-T
°C
Wind Press
QNH
hPa
Press
MSL
hPa
Rain
since 9 am
mm
Dir
 
Spd
km/h
Gust
km/h
Spd
kts
Gust
kts
23/07:00pm 12.5 9.2 6.3 66 2.9 NE 13 15 7 8 1014.1 - 0.0
23/06:30pm 14.3 9.7 3.7 49 4.8 NE 17 20 9 11 1014.0 1014.1 0.0
23/06:00pm 14.2 10.0 3.7 49 4.8 ENE 15 19 8 10 1014.0 1014.1 0.0
23/05:30pm 14.4 10.5 3.5 48 4.9 ENE 13 17 7 9 1014.3 1014.4 0.0
23/05:00pm 14.1 10.7 4.1 51 4.6 NE 11 15 6 8 1014.5 - 0.0
23/04:30pm 14.6 11.2 4.0 49 4.9 ENE 11 15 6 8 1014.6 1014.7 0.0
23/04:00pm 14.9 11.1 4.0 48 5.0 ENE 13 17 7 9 1014.6 - 0.0
23/03:30pm 15.2 10.6 3.7 46 5.3 NE 17 20 9 11 1014.9 1015.0 0.0
23/03:00pm 15.7 11.4 3.5 44 5.6 NE 15 20 8 11 1015.5 1015.5 0.0
23/02:30pm 15.6 10.9 3.1 43 5.7 NE 17 22 9 12 1015.8 1015.8 0.0
23/02:00pm 15.7 10.9 2.8 42 5.8 NNE 17 22 9 12 1016.2 - 0.0
23/01:30pm 15.7 10.5 2.5 41 5.9 NNE 19 26 10 14 1016.5 1016.5 0.0
23/01:00pm 15.3 10.2 3.1 44 5.5 NNE 19 24 10 13 1017.1 - 0.0
23/12:30pm 14.0 9.6 2.9 47 4.9 NNE 15 17 8 9 1017.9 1017.9 0.0
23/12:00pm 13.5 8.3 2.4 47 4.9 NNE 19 24 10 13 1018.7 1018.7 0.0
23/11:30am 13.4 8.5 2.3 47 4.8 NNE 17 22 9 12 1019.2 1019.2 0.0
23/11:00am 12.6 7.8 2.5 50 4.4 NNE 17 22 9 12 1019.9 - 0.0
23/10:30am 11.9 7.1 2.4 52 4.1 NE 17 22 9 12 1020.3 1020.3 0.0
23/10:00am 11.2 6.3 1.7 52 4.0 NE 17 24 9 13 1020.7 - 0.0
23/09:30am 9.8 5.6 1.5 56 3.4 NE 13 17 7 9 1020.7 1020.7 0.0
23/09:00am 8.3 3.6 1.0 60 2.9 ENE 15 20 8 11 1020.8 1020.8 0.0
23/08:30am 7.3 3.0 1.0 64 2.5 ENE 13 17 7 9 1020.9 1020.9 0.0
23/08:00am 6.1 1.7 0.6 68 2.2 E 13 15 7 8 1021.1 - 0.0
23/07:30am 5.7 1.3 0.5 69 2.0 ENE 13 17 7 9 1020.9 1020.9 0.0
23/07:00am 5.4 1.8 0.8 72 1.8 ENE 9 13 5 7 1020.8 - 0.0
23/06:30am 5.3 2.1 0.7 72 1.8 NE 7 9 4 5 1021.1 1021.1 0.0
23/06:00am 5.6 1.7 1.0 72 1.8 ENE 11 13 6 7 1020.8 1020.8 0.0
23/05:30am 5.0 0.7 1.3 77 1.4 E 13 15 7 8 1020.6 1020.6 0.0
23/05:00am 5.0 1.1 1.3 77 1.5 E 11 11 6 6 1020.8 - 0.0
23/04:30am 5.1 1.7 1.6 78 1.4 E 9 11 5 6 1021.0 1021.0 0.0
23/04:00am 5.2 1.0 1.5 77 1.5 E 13 15 7 8 1021.1 - 0.0
23/03:30am 5.2 1.0 1.5 77 1.5 E 13 15 7 8 1021.2 1021.2 0.0
23/03:00am 5.0 1.1 1.1 76 1.5 E 11 13 6 7 1021.7 1021.7 0.0
23/02:30am 5.1 1.2 1.0 75 1.6 E 11 13 6 7 1021.9 1021.9 0.0
23/02:00am 6.2 1.9 0.9 69 2.1 E 13 17 7 9 1021.7 - 0.0
23/01:30am 6.0 2.1 1.0 70 2.0 ENE 11 13 6 7 1021.9 1021.9 0.0
23/01:00am 5.8 1.8 0.8 70 2.0 ENE 11 13 6 7 1022.0 - 0.0
23/12:30am 5.9 2.4 1.2 72 1.9 E 9 11 5 6 1022.4 1022.4 0.0
23/12:00am 6.5 3.4 1.2 69 2.1 NE 7 9 4 5 1022.5 1022.5 0.0
 
Date/Time
CST
Temp
°C
App
Temp
°C
Dew
Point
Rel
Hum
%
Delta-T
°C
Wind Press
QNH
hPa
Press
MSL
hPa
Rain
since 9 am
mm
Dir
 
Spd
km/h
Gust
km/h
Spd
kts
Gust
kts
22/11:30pm 6.5 3.0 1.2 69 2.1 E 9 11 5 6 1022.6 1022.6 0.0
22/11:00pm 7.1 3.2 1.4 67 2.3 E 11 15 6 8 1022.6 - 0.0
22/10:30pm 7.5 4.0 1.4 65 2.5 ENE 9 9 5 5 1022.6 1022.6 0.0
22/10:00pm 7.6 4.2 1.7 66 2.4 ENE 9 11 5 6 1022.8 - 0.0
22/09:30pm 8.5 4.7 1.6 62 2.8 E 11 15 6 8 1022.8 1022.8 0.0
22/09:00pm 8.6 4.7 1.3 60 3.0 ENE 11 13 6 7 1022.8 1022.8 0.0
22/08:30pm 8.9 5.8 1.1 58 3.2 E 7 11 4 6 1022.9 1022.9 0.0
22/08:00pm 9.0 5.1 1.2 58 3.2 ENE 11 13 6 7 1023.1 - 0.0
22/07:30pm 9.8 6.3 1.2 55 3.5 E 9 11 5 6 1023.1 1023.1 0.0
22/07:00pm 10.2 6.3 1.3 54 3.7 E 11 11 6 6 1023.1 - 0.0
22/06:30pm 10.1 6.9 0.7 52 3.8 E 7 13 4 7 1022.9 1022.9 0.0
22/06:00pm 12.2 8.7 1.2 47 4.6 E 9 11 5 6 1022.6 1022.6 0.0
22/05:30pm 13.3 9.4 1.0 43 5.2 E 11 15 6 8 1022.3 1022.3 0.0
22/05:00pm 15.2 11.0 1.4 39 6.0 E 13 17 7 9 1022.4 - 0.0
22/04:30pm 16.6 11.9 1.1 35 6.8 ENE 15 19 8 10 1022.3 1022.3 0.0
22/04:00pm 17.2 12.9 1.2 34 7.1 ENE 13 17 7 9 1022.4 - 0.0
22/03:30pm 17.7 13.4 0.8 32 7.4 NNE 13 19 7 10 1022.1 1022.1 0.0
22/03:00pm 17.9 14.0 1.4 33 7.3 ENE 11 15 6 8 1022.2 1022.2 0.0
22/02:30pm 17.4 13.1 1.0 33 7.2 E 13 19 7 10 1022.4 1022.4 0.0
22/02:00pm 17.6 13.4 1.6 34 7.2 ENE 13 20 7 11 1022.5 - 0.0
22/01:30pm 17.1 12.9 1.5 35 6.9 E 13 19 7 10 1022.8 1022.8 0.0
22/01:00pm 17.1 12.9 1.5 35 6.9 NNE 13 19 7 10 1023.3 - 0.0
22/12:30pm 16.6 12.4 1.9 37 6.5 NNE 13 22 7 12 1023.6 1023.6 0.0
22/12:00pm 16.4 13.2 2.8 40 6.1 NNE 9 13 5 7 1024.2 1024.2 0.0
22/11:30am 15.1 11.3 2.0 41 5.8 NNE 11 17 6 9 1024.6 1024.6 0.0
22/11:00am 14.1 9.9 1.7 43 5.4 NNE 13 19 7 10 1025.3 - 0.0
22/10:30am 13.0 8.9 2.3 48 4.6 NNE 13 17 7 9 1025.7 1025.7 0.0
22/10:00am 11.6 7.1 2.4 53 4.0 NNE 15 20 8 11 1026.0 - 0.0
22/09:30am 9.7 6.0 2.6 61 3.0 NNE 11 17 6 9 1025.9 1025.9 0.0
22/09:00am 7.4 4.1 2.3 70 2.1 ENE 9 11 5 6 1025.9 1025.9 -
22/08:30am 5.3 2.5 2.0 79 1.3 E 6 7 3 4 1025.8 1025.8 -
22/08:00am 1.0 -2.2 -0.6 89 0.6 E 6 9 3 5 1025.7 - -
22/07:30am -1.5 -3.8 -2.6 92 0.3 CALM 0 0 0 0 1025.4 1025.4 -
22/07:00am -2.0 -4.4 -3.0 93 0.2 CALM 0 0 0 0 1025.0 - -
22/06:30am -2.0 -4.4 -3.1 92 0.3 CALM 0 0 0 0 1024.7 1024.7 -
22/06:00am -1.6 -4.7 -2.7 92 0.3 ESE 4 6 2 3 1024.3 1024.3 -
22/05:30am -1.4 -3.8 -2.8 90 0.4 CALM 0 0 0 0 1024.0 1024.0 0.0
22/05:00am -1.0 -3.3 -2.6 89 0.5 CALM 0 0 0 0 1023.8 - 0.0
22/04:30am -0.5 -2.8 -2.7 85 0.7 CALM 0 0 0 0 1023.7 1023.7 0.0
22/04:00am -0.2 -2.5 -2.1 87 0.6 CALM 0 4 0 2 1023.7 - 0.0
22/03:30am 0.2 -3.2 -1.9 86 0.7 E 6 7 3 4 1023.5 1023.5 0.0
22/03:00am 0.7 -2.8 -1.5 85 0.8 E 7 9 4 5 1023.5 1023.5 0.0
22/02:30am 1.2 -2.1 -1.5 82 0.9 E 6 7 3 4 1023.6 1023.6 0.0
22/02:00am 2.4 -1.0 -0.5 81 1.1 ENE 7 9 4 5 1023.5 - 0.0
22/01:30am 3.5 -0.3 -0.5 75 1.5 ENE 9 11 5 6 1023.6 1023.6 0.0
22/01:00am 5.6 1.6 0.8 71 1.9 ENE 11 15 6 8 1023.5 - 0.0
22/12:30am 6.2 2.3 0.9 69 2.1 ENE 11 15 6 8 1023.6 1023.6 0.0
22/12:00am 5.5 1.6 0.9 72 1.8 NE 11 13 6 7 1023.8 1023.8 0.0
 
Date/Time
CST
Temp
°C
App
Temp
°C
Dew
Point
Rel
Hum
%
Delta-T
°C
Wind Press
QNH
hPa
Press
MSL
hPa
Rain
since 9 am
mm
Dir
 
Spd
km/h
Gust
km/h
Spd
kts
Gust
kts
21/11:30pm 6.2 3.0 0.7 68 2.1 ENE 7 9 4 5 1023.7 1023.7 0.0
21/11:00pm 7.4 4.0 1.7 67 2.3 E 9 11 5 6 1023.5 - 0.0
21/10:30pm 7.5 4.1 2.0 68 2.2 E 9 13 5 7 1023.4 1023.4 0.0
21/10:00pm 7.1 3.7 1.8 69 2.2 ESE 9 13 5 7 1023.4 - 0.0
21/09:30pm 8.3 5.0 2.5 67 2.4 E 9 11 5 6 1023.4 1023.4 0.0
21/09:00pm 6.2 3.1 0.1 65 2.3 E 6 7 3 4 1023.5 1023.5 0.0
21/08:30pm 6.5 3.6 1.2 69 2.1 E 6 7 3 4 1023.4 1023.4 0.0
21/08:00pm 6.2 4.3 0.5 67 2.2 CALM 0 0 0 0 1023.3 - 0.0
21/07:30pm 6.9 5.0 0.8 65 2.4 CALM 0 0 0 0 1023.0 1023.0 0.0
21/07:00pm 7.1 4.8 0.1 61 2.7 ESE 2 6 1 3 1022.9 - 0.0
21/06:30pm 11.0 8.0 1.8 53 3.9 ESE 7 9 4 5 1022.6 1022.6 0.0
21/06:00pm 11.5 8.0 1.5 50 4.2 ESE 9 13 5 7 1022.2 1022.2 0.0
21/05:30pm 13.2 9.7 1.5 45 5.0 E 9 11 5 6 1021.8 1021.8 0.0
21/05:00pm 14.9 10.7 1.4 40 5.9 ENE 13 17 7 9 1021.6 - 0.0
21/04:30pm 16.5 12.6 1.0 35 6.8 N 11 19 6 10 1021.6 1021.6 0.0
21/04:00pm 16.8 13.2 0.9 34 7.0 N 9 17 5 9 1021.5 - 0.0
21/03:30pm 17.0 13.8 1.0 34 7.0 NNE 7 13 4 7 1021.5 1021.5 0.0
21/03:00pm 16.9 13.7 0.5 33 7.1 N 7 13 4 7 1021.4 1021.4 0.0
21/02:30pm 16.4 13.1 0.1 33 7.0 NNW 7 13 4 7 1021.7 1021.7 0.0
21/02:00pm 16.3 12.1 1.6 37 6.5 NNE 13 19 7 10 1021.8 - 0.0
21/01:30pm 16.1 13.2 2.5 40 6.1 NNE 7 11 4 6 1022.2 1022.2 0.0
21/01:00pm 14.4 11.5 2.6 45 5.2 NE 7 11 4 6 1022.6 - 0.0
21/12:30pm 13.6 10.7 2.8 48 4.8 NNE 7 13 4 7 1022.9 1022.9 0.0
21/12:00pm 14.0 10.8 3.2 48 4.8 N 9 13 5 7 1023.2 1023.2 0.0
21/11:30am 12.6 9.4 3.3 53 4.1 N 9 13 5 7 1023.6 1023.6 0.0
21/11:00am 11.4 8.7 3.7 59 3.4 NNE 7 9 4 5 1024.2 - 0.0
21/10:30am 10.4 7.4 3.9 64 2.9 NE 9 13 5 7 1024.5 1024.5 0.0
21/10:00am 9.0 6.7 4.8 75 1.9 E 6 9 3 5 1024.8 - 0.0
21/09:30am 7.4 5.1 4.7 83 1.2 ENE 6 9 3 5 1024.8 1024.8 0.0
21/09:00am 6.1 3.6 4.7 91 0.6 E 7 7 4 4 1024.8 1024.8 0.0
21/08:30am 5.0 2.7 5.0 100 0.0 ESE 6 7 3 4 1024.7 1024.7 0.0
21/08:00am 2.3 0.7 2.2 99 0.0 CALM 0 0 0 0 1024.7 - 0.0
21/07:30am 1.7 0.0 1.6 99 0.0 CALM 0 0 0 0 1024.5 1024.5 0.0
21/07:00am 1.4 -0.4 1.1 98 0.1 CALM 0 0 0 0 1024.5 - 0.0
21/06:30am 2.3 -1.1 1.7 96 0.2 ENE 9 9 5 5 1024.3 1024.3 0.0
21/06:00am 4.0 0.5 3.6 97 0.2 ENE 11 13 6 7 1024.0 1024.0 0.0
21/05:30am 4.5 0.7 3.9 96 0.2 ENE 13 13 7 7 1023.7 1023.7 0.0
21/05:00am 4.5 1.1 3.9 96 0.3 ENE 11 13 6 7 1023.7 - 0.0
21/04:30am 4.7 1.7 4.3 97 0.2 NE 9 11 5 6 1023.5 1023.5 0.0
21/04:00am 4.6 0.8 3.9 95 0.3 NE 13 15 7 8 1023.4 - 0.0
21/03:30am 5.0 1.2 3.8 92 0.5 NE 13 15 7 8 1023.5 1023.5 0.0
21/03:00am 6.2 3.6 4.0 86 0.9 E 7 9 4 5 1023.7 1023.7 0.0
21/02:30am 6.1 3.6 4.6 90 0.6 ENE 7 11 4 6 1023.8 1023.8 0.0
21/02:00am 5.8 2.9 4.8 93 0.4 ENE 9 11 5 6 1024.2 - 0.0
21/01:30am 4.2 1.5 2.9 91 0.5 ENE 6 9 3 5 1024.4 1024.4 0.0
21/01:00am 4.7 2.5 3.4 91 0.5 E 4 7 2 4 1024.4 - 0.0
21/12:30am 4.2 1.4 2.2 87 0.8 E 6 7 3 4 1024.4 1024.4 0.0
21/12:00am 5.0 2.2 3.2 88 0.7 E 7 7 4 4 1024.7 1024.7 0.0
 
Date/Time
CST
Temp
°C
App
Temp
°C
Dew
Point
Rel
Hum
%
Delta-T
°C
Wind Press
QNH
hPa
Press
MSL
hPa
Rain
since 9 am
mm
Dir
 
Spd
km/h
Gust
km/h
Spd
kts
Gust
kts
20/11:30pm 5.0 2.2 3.2 88 0.7 E 7 9 4 5 1025.1 1025.1 0.0
20/11:00pm 6.0 4.6 3.8 86 0.9 CALM 0 0 0 0 1025.4 - 0.0
20/10:30pm 7.0 4.6 4.5 84 1.1 ENE 6 6 3 3 1025.5 1025.5 0.0
20/10:00pm 7.2 4.3 4.5 83 1.2 ENE 9 11 5 6 1025.6 - 0.0
20/09:30pm 6.6 5.3 3.9 83 1.1 CALM 0 0 0 0 1025.5 1025.5 0.0
20/09:00pm 7.5 5.8 4.1 79 1.5 E 2 6 1 3 1025.5 1025.5 0.0
20/08:30pm 8.0 5.3 3.8 75 1.8 ENE 7 9 4 5 1025.6 1025.6 0.0
20/08:00pm 8.8 5.4 4.2 73 2.0 E 11 13 6 7 1025.4 - 0.0
20/07:30pm 8.2 5.5 3.9 74 1.9 E 7 9 4 5 1025.5 1025.5 0.0

Other Formats:

Comma delimited format used in spreadsheet applications
http://www.bom.gov.au/fwo/IDS60801/IDS60801.95687.axf

JavaScript Object Notation format (JSON) in row-major order
http://www.bom.gov.au/fwo/IDS60801/IDS60801.95687.json